Floral, Canada
Current Conditions -  °F | °C
As of 4:00 AM on Thursday 27 Nov 2014 (Local Time) from CYXE Reporting Station
Overcast Overcast  
Wind Chill: -2°   Ceiling: 9000
Heat Index:   Visibility: 15mi
Dew Point:   Wind: 5mph
Humidity: 85%   Direction: 90°E
Pressure: 30.17"   Gusts: NA
Location:  52.07°N, 106.47°W
Report Text: CYXE 271000Z 09004KT 080V140 15SM FEW050 OVC090 M14/M16 A3017 RMK SC2AC6 SLP265
Loading
Personal Weather Stations






























Interactive Weather Map New forecast layout! Learn more

10-Day Weather Forecast

Advertisements
Track Severe Weather on mobile